Time;durP1;ratioP1;P1;durP2;ratioP2;P2;SDS_P1;SDS_P2;PMS_P1;PMS_P2;Temp;Humidity;BMP_temperature;BMP_pressure;BME280_temperature;BME280_humidity;BME280_pressure;Samples;Min_cycle;Max_cycle;Signal;HPM_P1;HPM_P2
2022/10/30 00:00:54;;;;;;;20.52;11.63;;;15.80;99.90;;;;;;4994868;28;92625;-73
2022/10/30 00:03:21;;;;;;;21.25;11.13;;;15.70;99.90;;;;;;5011768;28;92488;-73
2022/10/30 00:05:50;;;;;;;16.52;11.30;;;15.70;99.90;;;;;;4995843;28;93324;-73
2022/10/30 00:08:19;;;;;;;19.10;11.20;;;15.70;99.90;;;;;;5011498;28;95565;-73
2022/10/30 00:10:49;;;;;;;19.27;11.20;;;15.70;99.90;;;;;;4996328;28;92402;-73
2022/10/30 00:13:17;;;;;;;17.73;10.45;;;15.60;99.90;;;;;;4996441;28;91660;-73
2022/10/30 00:15:52;;;;;;;20.50;10.52;;;15.60;99.90;;;;;;4996355;28;92996;-73
2022/10/30 00:18:19;;;;;;;18.67;11.48;;;15.60;99.90;;;;;;4996031;28;93059;-73
2022/10/30 00:20:47;;;;;;;17.30;10.85;;;15.60;99.90;;;;;;4994920;28;94840;-73
2022/10/30 00:23:15;;;;;;;17.85;10.85;;;15.60;99.90;;;;;;4996184;28;92373;-73
2022/10/30 00:25:42;;;;;;;14.82;11.60;;;15.60;99.90;;;;;;4994774;28;92741;-73
2022/10/30 00:28:09;;;;;;;17.73;11.75;;;15.60;99.90;;;;;;5010779;28;95757;-73
2022/10/30 00:30:36;;;;;;;15.02;10.93;;;15.50;99.90;;;;;;4996045;28;92350;-73
2022/10/30 00:33:03;;;;;;;16.00;11.35;;;15.50;99.90;;;;;;5010654;28;104269;-73
2022/10/30 00:35:30;;;;;;;16.23;11.90;;;15.50;99.90;;;;;;4995309;28;93111;-73
2022/10/30 00:37:59;;;;;;;18.83;12.10;;;15.50;99.90;;;;;;5011230;28;94320;-73
2022/10/30 00:40:26;;;;;;;15.70;11.57;;;15.40;99.90;;;;;;5011255;28;92616;-73
2022/10/30 00:42:53;;;;;;;17.48;11.27;;;15.40;99.90;;;;;;5009840;28;92640;-73
2022/10/30 00:45:20;;;;;;;16.60;11.50;;;15.40;99.90;;;;;;4993145;28;98137;-73
2022/10/30 00:47:54;;;;;;;20.38;12.10;;;15.40;99.90;;;;;;5010733;28;98543;-73
2022/10/30 00:50:26;;;;;;;;;;;15.40;99.90;;;;;;4996147;28;92457;-73
2022/10/30 00:53:05;;;;;;;17.45;11.07;;;15.30;99.90;;;;;;5012466;28;92500;-73
2022/10/30 00:55:36;;;;;;;21.15;11.70;;;15.20;99.90;;;;;;4994007;28;95753;-73
2022/10/30 00:58:08;;;;;;;19.65;11.20;;;15.30;99.90;;;;;;4994957;28;93217;-73
2022/10/30 01:00:37;;;;;;;20.02;10.80;;;15.30;99.90;;;;;;4994061;28;92486;-73
2022/10/30 01:03:05;;;;;;;19.52;11.13;;;15.30;99.90;;;;;;4995654;28;91809;-73
2022/10/30 01:05:33;;;;;;;19.17;11.07;;;15.30;99.90;;;;;;5010377;28;96360;-73
2022/10/30 01:08:00;;;;;;;19.10;11.73;;;15.20;99.90;;;;;;5010468;28;95628;-73
2022/10/30 01:10:27;;;;;;;15.10;10.75;;;15.20;99.90;;;;;;4994262;28;94715;-73
2022/10/30 01:12:57;;;;;;;19.33;10.80;;;15.20;99.90;;;;;;5010621;28;92501;-73
2022/10/30 01:15:32;;;;;;;17.38;11.73;;;15.20;99.90;;;;;;4995215;28;93984;-73
2022/10/30 01:18:16;;;;;;;18.55;11.55;;;15.20;99.90;;;;;;5010547;28;95643;-73
2022/10/30 01:20:58;;;;;;;17.45;11.52;;;15.10;99.90;;;;;;4994179;28;92590;-73
2022/10/30 01:23:33;;;;;;;18.80;10.68;;;15.10;99.90;;;;;;5010563;28;92942;-73
2022/10/30 01:26:07;;;;;;;15.05;10.52;;;15.00;99.90;;;;;;4993468;28;96082;-73
2022/10/30 01:28:41;;;;;;;;;;;15.00;99.90;;;;;;5011218;28;95519;-73
2022/10/30 01:31:27;;;;;;;15.55;10.63;;;14.90;99.90;;;;;;5011811;28;92463;-73
2022/10/30 01:34:32;;;;;;;21.05;11.40;;;14.90;99.90;;;;;;5010504;28;94324;-73
2022/10/30 01:37:08;;;;;;;20.00;11.30;;;14.90;99.90;;;;;;4992303;28;98160;-73
2022/10/30 01:39:38;;;;;;;18.63;12.07;;;14.90;99.90;;;;;;5009895;28;97839;-73
2022/10/30 01:42:36;;;;;;;17.90;11.43;;;14.90;99.90;;;;;;4993649;28;92707;-73
2022/10/30 01:45:10;;;;;;;12.52;9.90;;;14.90;99.90;;;;;;5009968;28;92489;-73
2022/10/30 01:48:09;;;;;;;19.88;10.73;;;14.90;99.90;;;;;;4994025;28;95989;-73
2022/10/30 01:51:07;;;;;;;16.05;10.40;;;14.90;99.90;;;;;;4989085;28;95374;-73
2022/10/30 01:53:44;;;;;;;16.70;10.35;;;14.80;99.90;;;;;;5010258;28;92582;-73
2022/10/30 01:56:28;;;;;;;19.60;10.93;;;14.80;99.90;;;;;;5013712;28;91756;-73
2022/10/30 01:59:10;;;;;;;17.50;10.93;;;14.80;99.90;;;;;;5013610;28;95517;-73
2022/10/30 02:01:38;;;;;;;17.88;12.27;;;14.80;99.90;;;;;;5013565;28;94280;-73
2022/10/30 02:04:11;;;;;;;18.42;11.35;;;14.80;99.90;;;;;;5012228;28;94974;-73
2022/10/30 02:06:38;;;;;;;19.50;11.73;;;14.80;99.90;;;;;;4996935;28;92603;-73
2022/10/30 02:09:07;;;;;;;18.70;12.38;;;14.80;99.90;;;;;;5013259;28;95772;-73
2022/10/30 02:11:37;;;;;;;17.30;11.40;;;14.80;99.90;;;;;;4998075;28;93387;-73
2022/10/30 02:14:06;;;;;;;20.77;12.13;;;14.80;99.90;;;;;;4996681;28;92558;-73
2022/10/30 02:16:37;;;;;;;21.77;12.82;;;14.70;99.90;;;;;;5013280;28;92465;-73
2022/10/30 02:19:06;;;;;;;17.75;11.82;;;14.80;99.90;;;;;;4996431;28;96023;-73
2022/10/30 02:21:33;;;;;;;19.75;11.40;;;14.80;99.90;;;;;;5013187;28;100992;-73
2022/10/30 02:24:00;;;;;;;22.83;12.02;;;14.80;99.90;;;;;;4980332;28;92962;-73
2022/10/30 02:26:27;;;;;;;20.05;12.20;;;14.80;99.90;;;;;;4996259;28;92543;-73
2022/10/30 02:28:54;;;;;;;18.45;11.98;;;14.80;99.90;;;;;;4995210;28;98488;-73
2022/10/30 02:31:21;;;;;;;18.60;11.70;;;14.80;99.90;;;;;;5012515;28;97319;-73
2022/10/30 02:33:49;;;;;;;19.85;11.80;;;14.80;99.90;;;;;;4996096;28;92506;-73
2022/10/30 02:36:16;;;;;;;16.27;11.60;;;14.80;99.90;;;;;;4995969;28;93106;-73
2022/10/30 02:38:43;;;;;;;18.67;11.73;;;14.80;99.90;;;;;;4996366;28;95762;-73
2022/10/30 02:41:11;;;;;;;22.55;12.23;;;14.80;99.90;;;;;;5012931;28;95430;-73
2022/10/30 02:43:38;;;;;;;21.58;11.63;;;14.80;99.90;;;;;;4996074;28;92410;-73
2022/10/30 02:46:05;;;;;;;19.48;11.75;;;14.80;99.90;;;;;;4996499;28;91971;-73
2022/10/30 02:48:33;;;;;;;16.02;11.88;;;14.80;99.90;;;;;;5012452;28;95116;-73
2022/10/30 02:51:01;;;;;;;18.52;11.13;;;14.80;99.90;;;;;;5012704;28;95327;-73
2022/10/30 02:53:29;;;;;;;19.75;11.95;;;14.80;99.90;;;;;;4994644;28;94779;-73
2022/10/30 02:56:02;;;;;;;17.58;10.88;;;14.80;99.90;;;;;;5012676;28;92500;-73
2022/10/30 02:58:29;;;;;;;19.98;10.95;;;14.80;99.90;;;;;;4995784;28;95450;-73
2022/10/30 03:00:56;;;;;;;17.73;11.30;;;14.80;99.90;;;;;;5012506;28;94438;-73
2022/10/30 03:03:23;;;;;;;18.13;11.30;;;14.80;99.90;;;;;;4995575;28;92438;-73
2022/10/30 03:05:50;;;;;;;16.67;11.45;;;14.80;99.90;;;;;;4994962;28;92479;-73
2022/10/30 03:08:16;;;;;;;20.58;11.93;;;14.80;99.90;;;;;;5012546;28;95993;-73
2022/10/30 03:10:44;;;;;;;17.35;11.30;;;14.80;99.90;;;;;;4979468;28;95542;-73
2022/10/30 03:13:10;;;;;;;17.23;11.68;;;14.80;99.90;;;;;;4979229;28;92354;-73
2022/10/30 03:15:37;;;;;;;20.00;11.38;;;14.70;99.90;;;;;;4995568;28;92526;-73
2022/10/30 03:18:04;;;;;;;15.02;10.57;;;14.70;99.90;;;;;;5011146;28;98158;-73
2022/10/30 03:20:37;;;;;;;20.45;11.55;;;14.70;99.90;;;;;;4995684;28;95420;-73
2022/10/30 03:23:04;;;;;;;18.15;11.95;;;14.70;99.90;;;;;;4997028;28;92428;-73
2022/10/30 03:25:31;;;;;;;17.67;11.77;;;14.60;99.90;;;;;;4995693;28;92592;-73
2022/10/30 03:27:59;;;;;;;18.85;12.63;;;14.60;99.90;;;;;;4978866;28;95703;-73
2022/10/30 03:30:27;;;;;;;20.60;12.25;;;14.60;99.90;;;;;;4978587;28;95460;-73
2022/10/30 03:32:54;;;;;;;21.48;12.13;;;14.60;99.90;;;;;;4997021;28;92934;-73
2022/10/30 03:35:21;;;;;;;18.02;11.63;;;14.60;99.90;;;;;;4995148;28;91831;-73
2022/10/30 03:37:48;;;;;;;22.05;12.32;;;14.60;99.90;;;;;;4995155;28;95841;-73
2022/10/30 03:40:16;;;;;;;16.45;11.43;;;14.60;99.90;;;;;;4994979;28;94313;-73
2022/10/30 03:42:43;;;;;;;17.55;11.23;;;14.60;99.90;;;;;;5010774;28;94933;-73
2022/10/30 03:45:10;;;;;;;16.05;11.25;;;14.60;99.90;;;;;;4996700;28;92429;-73
2022/10/30 03:47:39;;;;;;;19.92;11.90;;;14.50;99.90;;;;;;5011668;28;95615;-73
2022/10/30 03:50:08;;;;;;;18.08;11.77;;;14.50;99.90;;;;;;4996725;28;92743;-73
2022/10/30 03:52:35;;;;;;;20.05;11.93;;;14.50;99.90;;;;;;5011576;28;92518;-73
2022/10/30 03:55:02;;;;;;;21.60;12.23;;;14.50;99.90;;;;;;4994945;28;92554;-73
2022/10/30 03:57:28;;;;;;;19.20;11.80;;;14.50;99.90;;;;;;5011363;28;95742;-73
2022/10/30 04:00:06;;;;;;;17.58;12.13;;;14.50;99.90;;;;;;4995216;28;95270;-73
2022/10/30 04:02:52;;;;;;;16.80;11.40;;;14.50;99.90;;;;;;5011889;28;92522;-73
2022/10/30 04:05:22;;;;;;;18.85;12.02;;;14.50;99.90;;;;;;4978454;28;92944;-73
2022/10/30 04:07:56;;;;;;;17.85;12.15;;;14.40;99.90;;;;;;5009960;28;97931;-73
2022/10/30 04:10:24;;;;;;;19.48;11.82;;;14.50;99.90;;;;;;4994829;28;97928;-73
2022/10/30 04:12:58;;;;;;;19.88;11.98;;;14.40;99.90;;;;;;5011028;28;92492;-73
2022/10/30 04:15:25;;;;;;;17.95;11.88;;;14.40;99.90;;;;;;4994729;28;92447;-73
2022/10/30 04:17:52;;;;;;;22.27;12.30;;;14.40;99.90;;;;;;5010922;28;94838;-73
2022/10/30 04:20:21;;;;;;;15.88;11.25;;;14.30;99.90;;;;;;5011264;28;96034;-73
2022/10/30 04:22:48;;;;;;;18.20;11.43;;;14.30;99.90;;;;;;5010907;28;92379;-73
2022/10/30 04:25:20;;;;;;;18.08;11.00;;;14.30;99.90;;;;;;5011867;28;92407;-73
2022/10/30 04:27:51;;;;;;;25.27;12.50;;;14.30;99.90;;;;;;4994228;28;95425;-73
2022/10/30 04:30:32;;;;;;;17.45;11.88;;;14.30;99.90;;;;;;5010906;28;95902;-73
2022/10/30 04:33:02;;;;;;;18.70;11.30;;;14.30;99.90;;;;;;4993526;28;94812;-73
2022/10/30 04:35:32;;;;;;;17.13;11.73;;;14.20;99.90;;;;;;4977899;28;92426;-73
2022/10/30 04:38:09;;;;;;;18.15;12.00;;;14.20;99.90;;;;;;4994670;28;94559;-73
2022/10/30 04:40:38;;;;;;;19.30;12.00;;;14.20;99.90;;;;;;4994030;28;94493;-73
2022/10/30 04:43:07;;;;;;;20.35;11.45;;;14.20;99.90;;;;;;4994504;28;92539;-73
2022/10/30 04:45:34;;;;;;;19.10;11.73;;;14.10;99.90;;;;;;5011015;28;92362;-73
2022/10/30 04:48:14;;;;;;;21.67;12.35;;;14.10;99.90;;;;;;4994333;28;95466;-73
2022/10/30 04:50:42;;;;;;;24.38;12.68;;;14.10;99.90;;;;;;4994617;28;95747;-73
2022/10/30 04:53:17;;;;;;;22.92;12.75;;;14.10;99.90;;;;;;4995665;28;92456;-73
2022/10/30 04:55:51;;;;;;;20.90;12.20;;;14.00;99.90;;;;;;4994142;28;92519;-73
2022/10/30 04:58:19;;;;;;;19.63;13.10;;;14.00;99.90;;;;;;4992803;28;97513;-73
2022/10/30 05:00:51;;;;;;;20.90;13.13;;;14.00;99.90;;;;;;5010490;28;97971;-73
2022/10/30 05:03:23;;;;;;;17.77;12.18;;;14.00;99.90;;;;;;4994131;28;93061;-73
2022/10/30 05:06:00;;;;;;;21.23;12.55;;;14.00;99.90;;;;;;5010550;28;92535;-73
2022/10/30 05:08:28;;;;;;;18.67;12.15;;;14.00;99.90;;;;;;4994136;28;95677;-73
2022/10/30 05:10:57;;;;;;;20.60;12.52;;;14.00;99.90;;;;;;4993700;28;94910;-73
2022/10/30 05:13:24;;;;;;;17.75;13.05;;;13.90;99.90;;;;;;4977394;28;92545;-73
2022/10/30 05:15:54;;;;;;;22.67;13.15;;;14.00;99.90;;;;;;4994317;28;92193;-73
2022/10/30 05:18:21;;;;;;;21.30;12.13;;;14.00;99.90;;;;;;5010358;28;95223;-73
2022/10/30 05:20:48;;;;;;;18.92;12.18;;;14.00;99.90;;;;;;5010052;28;95349;-73
2022/10/30 05:23:15;;;;;;;24.08;12.88;;;13.90;99.90;;;;;;4976235;28;94868;-73
2022/10/30 05:25:42;;;;;;;21.58;12.68;;;14.00;99.90;;;;;;4993807;28;92456;-73
2022/10/30 05:28:11;;;;;;;18.23;12.00;;;13.90;99.90;;;;;;5010464;28;95760;-73
2022/10/30 05:30:44;;;;;;;16.00;11.70;;;13.90;99.90;;;;;;4977378;28;95466;-73
2022/10/30 05:33:25;;;;;;;18.52;12.07;;;13.90;99.90;;;;;;5010313;28;92520;-73
2022/10/30 05:35:52;;;;;;;19.10;12.27;;;13.80;99.90;;;;;;4993337;28;92523;-73
2022/10/30 05:38:19;;;;;;;22.00;11.88;;;13.80;99.90;;;;;;5010343;28;93044;-73
2022/10/30 05:40:47;;;;;;;20.80;13.15;;;13.80;99.90;;;;;;4977305;28;94996;-73
2022/10/30 05:43:14;;;;;;;16.58;12.68;;;13.80;99.90;;;;;;4994898;28;92978;-73
2022/10/30 05:45:41;;;;;;;19.77;12.13;;;13.80;99.90;;;;;;5010337;28;92536;-73
2022/10/30 05:48:08;;;;;;;19.33;12.88;;;13.70;99.90;;;;;;4991842;28;97891;-73
2022/10/30 05:50:41;;;;;;;19.70;12.20;;;13.70;99.90;;;;;;5010040;28;97784;-73
2022/10/30 05:53:19;;;;;;;19.52;12.30;;;13.70;99.90;;;;;;4993446;28;93175;-73
2022/10/30 05:55:46;;;;;;;21.15;13.23;;;13.60;99.90;;;;;;4976617;28;92949;-73
2022/10/30 05:58:19;;;;;;;18.15;12.50;;;13.60;99.90;;;;;;4993357;28;95574;-73
2022/10/30 06:00:47;;;;;;;21.50;12.73;;;13.60;99.90;;;;;;5009729;28;95630;-73
2022/10/30 06:03:19;;;;;;;20.00;12.77;;;13.50;99.90;;;;;;4994394;28;92429;-73
2022/10/30 06:05:46;;;;;;;18.35;12.73;;;13.50;99.90;;;;;;5010452;28;92305;-73
2022/10/30 06:08:16;;;;;;;21.23;13.20;;;13.50;99.90;;;;;;4993039;28;95614;-73
2022/10/30 06:10:45;;;;;;;22.48;14.48;;;13.50;99.90;;;;;;5009845;28;95557;-73
2022/10/30 06:13:15;;;;;;;19.45;12.73;;;13.60;99.90;;;;;;4992212;28;94900;-73
2022/10/30 06:16:01;;;;;;;25.85;13.70;;;13.60;99.90;;;;;;4992946;28;92574;-73
2022/10/30 06:18:55;;;;;;;21.42;14.90;;;13.60;99.90;;;;;;4996690;28;95909;-73
2022/10/30 06:21:23;;;;;;;22.95;13.95;;;13.60;99.90;;;;;;5009952;28;94470;-73
2022/10/30 06:24:08;;;;;;;26.55;13.93;;;13.60;99.90;;;;;;4993573;28;92391;-73
2022/10/30 06:27:01;;;;;;;20.65;13.65;;;13.60;99.90;;;;;;4977257;28;92519;-73
2022/10/30 06:29:29;;;;;;;25.63;14.32;;;13.60;99.90;;;;;;4992943;28;95589;-73
2022/10/30 06:31:55;;;;;;;19.20;13.73;;;13.60;99.90;;;;;;5009827;28;95695;-73
2022/10/30 06:34:24;;;;;;;24.33;14.55;;;13.70;99.90;;;;;;4992936;28;92593;-73
2022/10/30 06:36:52;;;;;;;23.10;13.88;;;13.70;99.90;;;;;;4976532;28;92556;-73
2022/10/30 06:39:18;;;;;;;22.38;13.82;;;13.80;99.90;;;;;;4992647;28;100493;-73
2022/10/30 06:42:00;;;;;;;25.63;14.07;;;13.80;99.90;;;;;;5011143;28;96558;-73
2022/10/30 06:44:57;;;;;;;22.92;14.13;;;13.80;99.90;;;;;;4983471;28;92515;-73
2022/10/30 06:47:24;;;;;;;23.13;14.15;;;13.80;99.90;;;;;;5013090;28;92484;-73
2022/10/30 06:49:51;;;;;;;19.00;13.13;;;13.90;99.90;;;;;;4979382;28;95727;-73
2022/10/30 06:52:21;;;;;;;27.27;13.93;;;13.90;99.90;;;;;;4979170;28;95760;-73
2022/10/30 06:54:50;;;;;;;24.35;14.02;;;13.90;99.90;;;;;;4996055;28;92437;-73
2022/10/30 06:57:36;;;;;;;21.25;14.60;;;14.00;99.90;;;;;;4995874;28;91656;-73
2022/10/30 07:00:32;;;;;;;24.40;13.82;;;14.00;99.90;;;;;;4991639;28;93091;-73
2022/10/30 07:03:18;;;;;;;21.05;13.82;;;14.00;99.90;;;;;;4995409;28;92464;-73
2022/10/30 07:05:45;;;;;;;20.80;13.20;;;14.10;99.90;;;;;;4994796;28;94876;-73
2022/10/30 07:08:12;;;;;;;20.33;13.93;;;14.10;99.90;;;;;;4997082;28;92467;-73
2022/10/30 07:10:39;;;;;;;20.25;13.40;;;14.20;99.90;;;;;;4978995;28;95573;-73
2022/10/30 07:13:35;;;;;;;23.13;14.07;;;14.20;99.90;;;;;;4991182;28;93873;-73
2022/10/30 07:16:21;;;;;;;20.27;14.10;;;14.30;99.90;;;;;;4996114;28;92418;-73
2022/10/30 07:18:48;;;;;;;21.65;13.10;;;14.40;99.90;;;;;;4995518;28;93207;-73
2022/10/30 07:21:15;;;;;;;14.73;11.70;;;14.50;99.90;;;;;;5011760;28;95970;-73
2022/10/30 07:23:42;;;;;;;24.50;12.65;;;14.70;99.90;;;;;;4995872;28;95614;-73
2022/10/30 07:26:37;;;;;;;19.15;11.57;;;14.70;99.90;;;;;;4994563;28;93228;-73
2022/10/30 07:29:24;;;;;;;16.73;11.63;;;14.80;99.90;;;;;;4996329;28;92465;-73
2022/10/30 07:32:15;;;;;;;19.33;11.73;;;14.90;99.90;;;;;;4995405;28;95554;-73
2022/10/30 07:35:00;;;;;;;19.20;13.52;;;15.00;99.90;;;;;;5008220;28;94864;-73
2022/10/30 07:37:48;;;;;;;22.15;12.45;;;15.10;99.90;;;;;;4995043;28;92434;-73
2022/10/30 07:40:16;;;;;;;20.15;12.57;;;15.20;99.90;;;;;;5011910;28;92507;-73
2022/10/30 07:43:00;;;;;;;17.42;12.73;;;15.30;99.90;;;;;;4980922;28;95608;-73
2022/10/30 07:45:46;;;;;;;19.95;12.32;;;15.30;99.90;;;;;;4996046;28;92547;-73
2022/10/30 07:48:32;;;;;;;19.33;12.52;;;15.40;99.90;;;;;;4993135;28;92436;-73
2022/10/30 07:51:07;;;;;;;19.63;11.73;;;15.50;99.90;;;;;;4964941;28;91698;-73
2022/10/30 07:53:34;;;;;;;20.67;11.90;;;15.60;99.90;;;;;;4994874;28;93197;-73
2022/10/30 07:56:03;;;;;;;16.52;12.05;;;15.80;99.90;;;;;;5011564;28;95445;-73
2022/10/30 07:58:52;;;;;;;19.20;12.52;;;15.90;99.90;;;;;;4994801;28;94832;-73
2022/10/30 08:01:38;;;;;;;21.05;12.05;;;16.00;99.90;;;;;;5007490;28;92546;-73
2022/10/30 08:04:27;;;;;;;31.63;13.45;;;16.00;99.90;;;;;;5008412;28;93905;-73
2022/10/30 08:07:03;;;;;;;20.90;12.73;;;16.10;99.90;;;;;;5011590;28;94054;-73
2022/10/30 08:09:30;;;;;;;23.20;12.85;;;16.00;99.90;;;;;;4994667;28;92439;-73
2022/10/30 08:11:57;;;;;;;21.15;12.63;;;16.10;99.90;;;;;;4995091;28;92480;-73
2022/10/30 08:14:24;;;;;;;19.73;12.00;;;16.00;99.90;;;;;;4994544;28;95183;-73
2022/10/30 08:16:51;;;;;;;19.63;13.25;;;16.10;99.90;;;;;;5011636;28;95480;-73
2022/10/30 08:19:18;;;;;;;22.75;13.88;;;16.10;99.90;;;;;;4978161;28;92459;-73
2022/10/30 08:21:46;;;;;;;18.58;13.38;;;16.10;99.90;;;;;;4994587;28;92476;-73
2022/10/30 08:24:18;;;;;;;23.20;14.45;;;16.20;99.90;;;;;;4993102;28;97138;-73
2022/10/30 08:26:51;;;;;;;19.88;12.88;;;16.20;99.90;;;;;;4994280;28;97959;-73
2022/10/30 08:29:18;;;;;;;19.92;13.32;;;16.20;99.90;;;;;;5011146;28;92475;-73
2022/10/30 08:31:48;;;;;;;18.02;13.43;;;16.30;99.90;;;;;;5011365;28;92510;-73
2022/10/30 08:34:21;;;;;;;;;;;16.30;99.90;;;;;;4993339;28;92941;-73
2022/10/30 08:36:52;;;;;;;17.50;13.25;;;16.30;99.90;;;;;;5012681;28;95271;-73
2022/10/30 08:39:20;;;;;;;21.40;14.60;;;16.30;99.90;;;;;;5011043;28;92459;-73
2022/10/30 08:41:58;;;;;;;17.02;13.57;;;16.30;99.90;;;;;;4994937;28;91754;-73
2022/10/30 08:44:29;;;;;;;26.20;14.75;;;16.50;99.90;;;;;;4993932;28;95632;-73
2022/10/30 08:47:14;;;;;;;18.50;14.07;;;16.50;99.90;;;;;;5006414;28;92527;-73
2022/10/30 08:49:41;;;;;;;20.13;14.32;;;16.50;99.90;;;;;;4976681;28;96136;-73
2022/10/30 08:52:09;;;;;;;18.42;13.80;;;16.60;99.90;;;;;;4994492;28;93073;-73
2022/10/30 08:54:37;;;;;;;19.58;14.07;;;16.60;99.90;;;;;;5010772;28;95528;-73
2022/10/30 08:57:04;;;;;;;20.80;14.07;;;16.70;99.90;;;;;;5010473;28;95694;-73
2022/10/30 08:59:31;;;;;;;20.02;14.27;;;16.80;99.90;;;;;;4995443;28;92387;-73
2022/10/30 09:01:59;;;;;;;22.58;14.38;;;16.80;99.90;;;;;;4994305;28;92544;-73
2022/10/30 09:04:44;;;;;;;21.08;13.98;;;16.90;99.90;;;;;;5006582;28;92816;-73
2022/10/30 09:07:35;;;;;;;20.63;15.20;;;16.90;99.90;;;;;;4993751;28;93871;-73
2022/10/30 09:10:22;;;;;;;21.02;14.10;;;17.00;99.90;;;;;;4967156;28;92461;-73
2022/10/30 09:12:55;;;;;;;20.85;13.38;;;17.20;99.90;;;;;;5010347;28;92520;-73
2022/10/30 09:15:23;;;;;;;20.17;14.32;;;17.30;99.90;;;;;;5008819;28;98108;-73
2022/10/30 09:17:58;;;;;;;23.58;14.50;;;17.30;99.90;;;;;;4993585;28;97787;-73
2022/10/30 09:20:26;;;;;;;23.42;15.93;;;17.30;99.90;;;;;;5010610;28;93144;-73
2022/10/30 09:22:54;;;;;;;20.27;14.95;;;17.40;99.90;;;;;;4993913;28;92561;-73
2022/10/30 09:25:22;;;;;;;19.08;14.68;;;17.40;99.90;;;;;;5010023;28;95573;-73
2022/10/30 09:28:15;;;;;;;23.77;14.75;;;17.50;99.90;;;;;;4993350;28;92846;-73
2022/10/30 09:31:05;;;;;;;26.48;14.52;;;17.60;99.90;;;;;;4994954;28;92425;-73
2022/10/30 09:33:36;;;;;;;18.60;13.35;;;17.70;99.90;;;;;;4978263;28;91818;-73
2022/10/30 09:36:22;;;;;;;18.50;13.25;;;17.70;99.90;;;;;;5007041;28;92555;-73
2022/10/30 09:38:49;;;;;;;24.45;14.68;;;17.80;99.90;;;;;;4977077;28;95420;-74
2022/10/30 09:41:46;;;;;;;27.15;14.10;;;17.90;99.90;;;;;;4993997;28;94871;-73
2022/10/30 09:44:57;;;;;;;20.75;13.93;;;18.00;99.90;;;;;;5010266;28;92457;-73
2022/10/30 09:47:53;;;;;;;20.58;14.40;;;18.10;99.90;;;;;;5010047;28;95589;-73
2022/10/30 09:50:54;;;;;;;20.70;13.07;;;18.10;99.90;;;;;;5010192;28;95403;-73
2022/10/30 09:53:38;;;;;;;18.92;13.60;;;18.30;99.90;;;;;;4993499;28;92415;-73
2022/10/30 09:56:18;;;;;;;22.98;13.73;;;18.40;99.90;;;;;;5010046;28;92572;-73
2022/10/30 09:59:03;;;;;;;22.45;14.43;;;18.40;99.90;;;;;;4993155;28;95405;-73
2022/10/30 10:01:38;;;;;;;19.67;14.05;;;18.60;99.90;;;;;;5009940;28;95594;-73
2022/10/30 10:04:37;;;;;;;23.02;13.98;;;18.60;99.90;;;;;;4993291;28;92554;-73
2022/10/30 10:07:24;;;;;;;22.80;14.25;;;18.70;99.90;;;;;;4973978;28;92497;-73
2022/10/30 10:10:10;;;;;;;20.00;14.20;;;18.70;99.90;;;;;;5008535;28;96946;-74
2022/10/30 10:12:52;;;;;;;20.17;13.83;;;18.70;99.90;;;;;;5009568;28;97778;-73
2022/10/30 10:15:45;;;;;;;17.60;12.82;;;18.80;99.90;;;;;;4995867;28;92666;-73
2022/10/30 10:18:24;;;;;;;22.23;13.82;;;18.90;99.90;;;;;;4998237;28;92448;-73
2022/10/30 10:20:55;;;;;;;20.27;13.43;;;19.00;99.90;;;;;;4997771;28;93240;-73
2022/10/30 10:23:46;;;;;;;23.88;13.52;;;19.00;99.90;;;;;;4997936;28;92450;-74
2022/10/30 10:26:27;;;;;;;16.58;12.60;;;19.20;99.90;;;;;;4996676;28;92476;-73
2022/10/30 10:29:00;;;;;;;18.17;13.35;;;19.20;99.90;;;;;;4998315;28;91584;-74
2022/10/30 10:31:36;;;;;;;19.52;12.40;;;19.30;99.90;;;;;;4997903;28;93098;-73
2022/10/30 10:34:12;;;;;;;19.52;13.02;;;19.40;99.90;;;;;;4996218;28;94299;-74
2022/10/30 10:36:49;;;;;;;20.17;14.10;;;19.60;99.90;;;;;;4996503;28;95285;-73
2022/10/30 10:39:26;;;;;;;23.85;13.98;;;19.70;99.90;;;;;;4996444;28;92636;-73
2022/10/30 10:42:35;;;;;;;19.73;13.63;;;19.80;99.90;;;;;;4997675;28;93218;-73
2022/10/30 10:45:21;;;;;;;21.85;13.30;;;19.80;99.90;;;;;;4983799;28;93237;-73
2022/10/30 10:48:17;;;;;;;15.93;12.82;;;19.90;99.90;;;;;;4997595;28;92976;-73
2022/10/30 10:51:00;;;;;;;22.15;13.68;;;20.00;99.90;;;;;;5012827;28;92494;-73
2022/10/30 10:53:44;;;;;;;20.47;13.03;;;20.00;99.90;;;;;;4996405;28;93193;-73
2022/10/30 10:56:12;;;;;;;20.13;13.75;;;20.00;99.90;;;;;;4997824;28;93836;-73
2022/10/30 10:58:59;;;;;;;17.88;13.32;;;20.10;99.90;;;;;;4995886;28;92377;-74
2022/10/30 11:01:38;;;;;;;19.65;13.18;;;20.10;99.90;;;;;;4996080;28;92575;-73
2022/10/30 11:04:18;;;;;;;20.02;12.10;;;20.30;99.90;;;;;;5011411;28;95379;-73
2022/10/30 11:06:49;;;;;;;22.25;13.43;;;20.20;99.90;;;;;;5012364;28;95655;-73
2022/10/30 11:09:23;;;;;;;19.60;12.57;;;20.20;99.90;;;;;;4997368;28;92437;-73
2022/10/30 11:11:52;;;;;;;15.40;11.48;;;20.30;99.90;;;;;;4997242;28;92761;-73
2022/10/30 11:14:23;;;;;;;18.10;11.75;;;20.30;99.90;;;;;;4996955;28;93250;-73
2022/10/30 11:16:59;;;;;;;17.00;12.25;;;20.30;99.90;;;;;;4996769;28;93012;-73
2022/10/30 11:19:29;;;;;;;16.52;11.60;;;20.40;99.90;;;;;;4995730;28;92473;-73
2022/10/30 11:21:57;;;;;;;17.73;11.23;;;20.40;99.90;;;;;;4997214;28;91597;-74
2022/10/30 11:24:32;;;;;;;16.73;12.70;;;20.50;99.90;;;;;;4979157;28;94483;-74
2022/10/30 11:27:27;;;;;;;19.75;12.98;;;20.60;99.90;;;;;;4994610;28;92900;-73
2022/10/30 11:29:58;;;;;;;16.48;11.98;;;20.70;99.90;;;;;;5010863;28;94991;-73
2022/10/30 11:32:28;;;;;;;18.17;12.13;;;20.70;99.90;;;;;;4997299;28;92391;-73
2022/10/30 11:35:11;;;;;;;22.80;13.75;;;20.70;99.90;;;;;;5010828;28;95119;-73
2022/10/30 11:37:41;;;;;;;20.83;12.95;;;20.80;99.90;;;;;;4996580;28;97164;-73
2022/10/30 11:40:11;;;;;;;21.08;13.25;;;20.80;99.90;;;;;;4996741;28;92476;-73
2022/10/30 11:42:56;;;;;;;22.38;12.27;;;20.80;99.90;;;;;;4996818;28;92803;-74
2022/10/30 11:45:27;;;;;;;15.48;12.77;;;20.90;99.90;;;;;;5011962;28;93263;-73
2022/10/30 11:47:57;;;;;;;18.65;12.57;;;20.80;99.90;;;;;;4995255;28;95651;-73
2022/10/30 11:50:31;;;;;;;19.35;12.40;;;20.90;99.90;;;;;;4996947;28;92441;-73
2022/10/30 11:53:01;;;;;;;18.77;11.40;;;20.90;99.90;;;;;;4996692;28;92942;-73
2022/10/30 11:55:43;;;;;;;19.50;13.23;;;21.00;99.90;;;;;;4995434;28;95590;-73
2022/10/30 11:58:36;;;;;;;17.95;13.35;;;21.10;99.90;;;;;;5011746;28;95513;-73
2022/10/30 12:01:11;;;;;;;13.75;9.68;;;21.20;99.90;;;;;;4996394;28;92942;-74
2022/10/30 12:03:39;;;;;;;18.08;11.52;;;21.20;99.90;;;;;;5012439;28;93015;-74
2022/10/30 12:06:18;;;;;;;17.95;11.50;;;21.20;99.90;;;;;;4996170;28;93381;-73
2022/10/30 12:09:14;;;;;;;16.35;11.75;;;21.30;99.90;;;;;;5011800;28;93312;-73
2022/10/30 12:11:43;;;;;;;16.45;11.57;;;21.40;99.90;;;;;;5011896;28;92445;-73
2022/10/30 12:14:20;;;;;;;17.55;11.98;;;21.30;99.90;;;;;;4996329;28;91694;-74
2022/10/30 12:16:53;;;;;;;16.08;10.43;;;21.40;99.90;;;;;;4996209;28;93887;-73
2022/10/30 12:19:24;;;;;;;17.90;14.00;;;21.40;99.90;;;;;;4996192;28;93010;-74
2022/10/30 12:21:53;;;;;;;19.98;11.85;;;21.50;99.90;;;;;;4994841;28;94786;-74
2022/10/30 12:24:25;;;;;;;18.25;11.90;;;21.50;99.90;;;;;;5010704;28;107107;-73
2022/10/30 12:26:54;;;;;;;16.25;10.32;;;21.60;99.90;;;;;;5011212;28;93237;-73
2022/10/30 12:29:33;;;;;;;18.40;11.85;;;21.60;99.90;;;;;;4977909;28;95358;-74
2022/10/30 12:32:23;;;;;;;24.98;12.23;;;21.70;99.90;;;;;;5011371;28;92517;-73
2022/10/30 12:35:02;;;;;;;17.55;12.02;;;21.70;99.90;;;;;;5011468;28;93082;-74
2022/10/30 12:37:36;;;;;;;17.33;11.95;;;21.80;99.90;;;;;;4994341;28;95642;-74
2022/10/30 12:40:25;;;;;;;18.50;10.50;;;21.80;99.90;;;;;;4994718;28;93021;-73
2022/10/30 12:43:11;;;;;;;13.90;10.98;;;21.90;99.90;;;;;;4994431;28;92395;-73
2022/10/30 12:45:44;;;;;;;15.88;10.43;;;22.00;99.90;;;;;;5010964;28;92469;-74
2022/10/30 12:48:40;;;;;;;17.67;11.63;;;22.00;99.90;;;;;;4992629;28;98439;-74
2022/10/30 12:51:34;;;;;;;15.25;10.82;;;22.00;99.90;;;;;;4995403;28;95521;-73
2022/10/30 12:54:35;;;;;;;15.75;10.57;;;22.10;99.90;;;;;;4995446;28;92508;-74
2022/10/30 12:57:10;;;;;;;18.00;11.15;;;22.10;99.90;;;;;;4995708;28;92408;-74
2022/10/30 13:00:02;;;;;;;18.50;10.15;;;22.00;99.90;;;;;;4995452;28;93233;-74
2022/10/30 13:02:38;;;;;;;13.68;9.75;;;22.00;99.90;;;;;;4994182;28;95500;-74
2022/10/30 13:05:36;;;;;;;21.45;13.38;;;21.90;99.90;;;;;;4994452;28;92484;-74